Time;durP1;ratioP1;P1;durP2;ratioP2;P2;SDS_P1;SDS_P2;PMS_P1;PMS_P2;Temp;Humidity;BMP_temperature;BMP_pressure;BME280_temperature;BME280_humidity;BME280_pressure;Samples;Min_cycle;Max_cycle;Signal;HPM_P1;HPM_P2
2022/06/06 00:00:02;;;;;;;77.25;13.02;;;;;;;;;;5011708;28;20080;-57
2022/06/06 00:02:32;;;;;;;70.05;12.05;;;;;;;;;;5010566;28;20068;-58
2022/06/06 00:04:59;;;;;;;87.60;14.23;;;;;;;;;;5011213;28;20033;-56
2022/06/06 00:07:27;;;;;;;64.57;11.77;;;;;;;;;;5011058;28;20025;-57
2022/06/06 00:09:54;;;;;;;71.35;13.18;;;;;;;;;;5011172;28;20038;-59
2022/06/06 00:12:23;;;;;;;63.60;12.57;;;;;;;;;;5011443;28;20408;-57
2022/06/06 00:14:50;;;;;;;67.07;11.70;;;;;;;;;;5009754;28;20060;-60
2022/06/06 00:17:17;;;;;;;57.00;11.75;;;;;;;;;;5011191;28;20033;-56
2022/06/06 00:19:44;;;;;;;66.30;12.00;;;;;;;;;;5011339;28;20034;-58
2022/06/06 00:22:11;;;;;;;75.60;12.90;;;;;;;;;;5010916;28;20030;-56
2022/06/06 00:24:38;;;;;;;73.40;12.25;;;;;;;;;;5011076;28;20049;-58
2022/06/06 00:27:05;;;;;;;64.18;12.93;;;;;;;;;;5009306;28;20030;-57
2022/06/06 00:29:35;;;;;;;73.10;13.30;;;;;;;;;;5011166;28;20656;-59
2022/06/06 00:34:52;;;;;;;59.70;12.02;;;;;;;;;;5011508;28;20137;-57
2022/06/06 00:37:21;;;;;;;76.60;13.13;;;;;;;;;;5011100;28;20041;-57
2022/06/06 00:39:48;;;;;;;59.28;11.77;;;;;;;;;;5011355;28;20080;-57
2022/06/06 00:42:35;;;;;;;62.70;13.32;;;;;;;;;;5010784;28;20037;-53
2022/06/06 00:45:23;;;;;;;61.60;13.35;;;;;;;;;;5011121;28;20033;-57
2022/06/06 00:48:03;;;;;;;71.88;14.73;;;;;;;;;;5010848;28;20045;-58
2022/06/06 00:50:40;;;;;;;69.97;16.48;;;;;;;;;;5011551;28;20030;-57
2022/06/06 00:53:07;;;;;;;65.28;14.50;;;;;;;;;;5011112;28;20495;-58
2022/06/06 00:55:37;;;;;;;67.20;16.48;;;;;;;;;;5008367;28;20038;-59
2022/06/06 00:58:07;;;;;;;62.80;16.85;;;;;;;;;;5010938;28;20487;-59
2022/06/06 01:00:35;;;;;;;54.75;15.07;;;;;;;;;;5009890;28;20030;-58
2022/06/06 01:03:02;;;;;;;62.35;16.75;;;;;;;;;;5010452;28;20030;-56
2022/06/06 01:05:29;;;;;;;66.80;18.05;;;;;;;;;;5010886;28;20105;-55
2022/06/06 01:07:56;;;;;;;72.95;18.08;;;;;;;;;;5007963;28;20116;-57
2022/06/06 01:10:23;;;;;;;71.57;18.02;;;;;;;;;;5010504;28;20033;-58
2022/06/06 01:12:53;;;;;;;65.53;19.00;;;;;;;;;;5010421;28;20038;-58
2022/06/06 01:15:22;;;;;;;66.18;18.02;;;;;;;;;;5010228;28;20037;-58
2022/06/06 01:17:56;;;;;;;77.63;19.55;;;;;;;;;;5010160;28;20420;-56
2022/06/06 01:20:41;;;;;;;75.28;19.63;;;;;;;;;;5009451;28;20033;-56
2022/06/06 01:23:21;;;;;;;73.40;21.17;;;;;;;;;;5013707;28;20038;-59
2022/06/06 01:25:49;;;;;;;73.30;21.77;;;;;;;;;;5014147;28;20092;-59
2022/06/06 01:28:26;;;;;;;75.53;20.55;;;;;;;;;;5014099;28;20506;-59
2022/06/06 01:30:58;;;;;;;73.18;19.55;;;;;;;;;;5014831;28;20415;-60
2022/06/06 01:33:25;;;;;;;85.88;22.13;;;;;;;;;;5014024;28;20172;-59
2022/06/06 01:35:54;;;;;;;79.82;21.42;;;;;;;;;;5014219;28;20038;-60
2022/06/06 01:38:26;;;;;;;85.15;22.20;;;;;;;;;;5014710;28;20139;-60
2022/06/06 01:41:09;;;;;;;76.72;21.77;;;;;;;;;;5011793;28;20403;-60
2022/06/06 01:43:50;;;;;;;69.60;21.35;;;;;;;;;;5013846;28;20041;-60
2022/06/06 01:46:22;;;;;;;70.82;19.90;;;;;;;;;;5013940;28;20040;-60
2022/06/06 01:48:53;;;;;;;74.22;20.13;;;;;;;;;;5014195;28;20046;-61
2022/06/06 01:51:23;;;;;;;76.00;20.33;;;;;;;;;;5014703;28;20500;-60
2022/06/06 01:53:50;;;;;;;66.28;19.63;;;;;;;;;;5014148;28;20034;-59
2022/06/06 01:56:18;;;;;;;65.07;18.83;;;;;;;;;;5013452;28;20038;-58
2022/06/06 01:58:45;;;;;;;66.15;18.15;;;;;;;;;;5014106;28;20515;-59
2022/06/06 02:01:12;;;;;;;62.50;18.83;;;;;;;;;;5014095;28;20591;-60
2022/06/06 02:03:39;;;;;;;54.72;16.90;;;;;;;;;;5014602;28;20037;-59
2022/06/06 02:06:06;;;;;;;68.35;17.40;;;;;;;;;;5013595;28;20392;-60
2022/06/06 02:08:34;;;;;;;63.60;17.63;;;;;;;;;;5013944;28;20388;-60
2022/06/06 02:11:01;;;;;;;53.25;17.30;;;;;;;;;;5013935;28;20029;-59
2022/06/06 02:13:28;;;;;;;60.17;15.60;;;;;;;;;;5013843;28;20045;-57
2022/06/06 02:15:56;;;;;;;58.10;16.75;;;;;;;;;;5013706;28;20542;-59
2022/06/06 02:18:23;;;;;;;55.35;16.77;;;;;;;;;;5013495;28;20104;-59
2022/06/06 02:20:50;;;;;;;48.42;15.15;;;;;;;;;;5013870;28;20065;-60
2022/06/06 02:23:17;;;;;;;48.10;15.35;;;;;;;;;;5013620;28;20683;-59
2022/06/06 02:25:44;;;;;;;47.83;14.55;;;;;;;;;;5013926;28;20476;-59
2022/06/06 02:28:11;;;;;;;45.75;14.18;;;;;;;;;;5013157;28;20026;-59
2022/06/06 02:30:39;;;;;;;46.10;14.60;;;;;;;;;;5013576;28;20401;-59
2022/06/06 02:33:06;;;;;;;46.00;13.80;;;;;;;;;;5013339;28;20393;-59
2022/06/06 02:35:37;;;;;;;45.65;14.00;;;;;;;;;;5013363;28;20054;-59
2022/06/06 02:38:04;;;;;;;46.40;13.57;;;;;;;;;;5012914;28;20387;-59
2022/06/06 02:40:31;;;;;;;43.20;14.23;;;;;;;;;;5013374;28;20034;-59
2022/06/06 02:42:58;;;;;;;43.45;13.27;;;;;;;;;;5013360;28;20112;-59
2022/06/06 02:45:26;;;;;;;49.72;14.05;;;;;;;;;;5013506;28;20022;-59
2022/06/06 02:47:54;;;;;;;44.47;12.95;;;;;;;;;;5012995;28;20076;-59
2022/06/06 02:50:23;;;;;;;41.05;12.95;;;;;;;;;;5013006;28;20498;-60
2022/06/06 02:52:50;;;;;;;45.17;11.85;;;;;;;;;;5013083;28;20034;-58
2022/06/06 02:55:17;;;;;;;36.05;11.80;;;;;;;;;;5012681;28;20029;-59
2022/06/06 02:57:45;;;;;;;38.97;12.07;;;;;;;;;;5012651;28;20372;-59
2022/06/06 03:00:15;;;;;;;40.95;12.00;;;;;;;;;;5013450;28;20030;-59
2022/06/06 03:02:42;;;;;;;36.28;11.18;;;;;;;;;;5012439;28;20038;-59
2022/06/06 03:05:09;;;;;;;36.80;11.48;;;;;;;;;;5013058;28;20032;-59
2022/06/06 03:07:45;;;;;;;35.53;11.23;;;;;;;;;;5013038;28;20044;-59
2022/06/06 03:10:27;;;;;;;32.72;10.95;;;;;;;;;;5012745;28;20037;-59
2022/06/06 03:12:58;;;;;;;31.73;10.20;;;;;;;;;;5012826;28;20492;-60
2022/06/06 03:15:28;;;;;;;34.95;11.50;;;;;;;;;;5012601;28;20034;-59
2022/06/06 03:20:51;;;;;;;33.30;10.43;;;;;;;;;;5012608;28;20069;-60
2022/06/06 03:23:23;;;;;;;36.08;10.73;;;;;;;;;;5012752;28;20041;-59
2022/06/06 03:25:50;;;;;;;35.10;10.25;;;;;;;;;;5012247;28;20034;-59
2022/06/06 03:28:40;;;;;;;25.75;9.45;;;;;;;;;;5011820;28;20033;-58
2022/06/06 03:31:24;;;;;;;33.10;9.50;;;;;;;;;;5005229;28;20103;-59
2022/06/06 03:33:51;;;;;;;29.77;9.93;;;;;;;;;;5012794;28;20037;-59
2022/06/06 03:36:32;;;;;;;26.02;8.95;;;;;;;;;;5012264;28;20030;-60
2022/06/06 03:39:17;;;;;;;25.55;9.13;;;;;;;;;;5012506;28;20055;-59
2022/06/06 03:42:06;;;;;;;31.08;9.18;;;;;;;;;;5011749;28;20030;-60
2022/06/06 03:44:33;;;;;;;32.17;9.48;;;;;;;;;;5011624;28;20072;-61
2022/06/06 03:47:18;;;;;;;22.60;8.38;;;;;;;;;;5011984;28;20080;-59
2022/06/06 03:49:54;;;;;;;23.98;9.02;;;;;;;;;;5012014;28;20080;-59
2022/06/06 03:52:36;;;;;;;23.77;7.95;;;;;;;;;;5012223;28;20045;-59
2022/06/06 03:55:03;;;;;;;23.30;8.45;;;;;;;;;;5011962;28;20033;-59
2022/06/06 03:57:31;;;;;;;23.67;8.60;;;;;;;;;;5011772;28;20021;-59
2022/06/06 03:59:59;;;;;;;24.10;8.48;;;;;;;;;;5011992;28;20044;-60
2022/06/06 04:02:28;;;;;;;26.20;7.72;;;;;;;;;;5011742;28;20397;-59
2022/06/06 04:04:59;;;;;;;23.63;7.75;;;;;;;;;;5011913;28;20054;-59
2022/06/06 04:07:26;;;;;;;20.00;7.53;;;;;;;;;;5011585;28;20037;-60
2022/06/06 04:09:53;;;;;;;19.25;7.75;;;;;;;;;;5012304;28;20042;-60
2022/06/06 04:12:33;;;;;;;23.95;8.25;;;;;;;;;;5011495;28;20041;-59
2022/06/06 04:15:16;;;;;;;21.75;7.53;;;;;;;;;;5011949;28;20030;-59
2022/06/06 04:17:42;;;;;;;;;;;;;;;;;;5011815;28;20036;-59
2022/06/06 04:20:09;;;;;;;18.73;6.78;;;;;;;;;;5012154;28;20371;-60
2022/06/06 04:22:44;;;;;;;17.85;6.60;;;;;;;;;;5010894;28;20052;-60
2022/06/06 04:25:22;;;;;;;20.50;7.50;;;;;;;;;;5011803;28;20121;-59
2022/06/06 04:28:12;;;;;;;18.98;7.13;;;;;;;;;;5011361;28;20049;-60
2022/06/06 04:30:39;;;;;;;18.77;6.60;;;;;;;;;;4983811;28;20057;-59
2022/06/06 04:33:26;;;;;;;18.65;6.25;;;;;;;;;;5011269;28;20484;-61
2022/06/06 04:35:59;;;;;;;15.27;5.90;;;;;;;;;;5011119;28;20395;-60
2022/06/06 04:38:32;;;;;;;19.50;6.55;;;;;;;;;;5011180;28;20030;-59
2022/06/06 04:41:17;;;;;;;15.35;6.13;;;;;;;;;;5011548;28;20034;-59
2022/06/06 04:43:47;;;;;;;14.32;6.03;;;;;;;;;;5010093;28;20398;-60
2022/06/06 04:46:37;;;;;;;16.52;5.72;;;;;;;;;;5011296;28;20029;-59
2022/06/06 04:49:04;;;;;;;16.77;6.35;;;;;;;;;;5003391;28;20450;-59
2022/06/06 04:51:33;;;;;;;16.35;6.10;;;;;;;;;;5012051;28;20024;-60
2022/06/06 04:54:00;;;;;;;13.88;5.80;;;;;;;;;;5011340;28;20037;-60
2022/06/06 04:56:27;;;;;;;17.20;6.28;;;;;;;;;;5012292;28;20026;-59
2022/06/06 04:58:57;;;;;;;14.98;5.55;;;;;;;;;;5015361;28;20062;-60
2022/06/06 05:01:26;;;;;;;15.30;6.10;;;;;;;;;;5015317;28;20053;-60
2022/06/06 05:03:53;;;;;;;15.35;5.45;;;;;;;;;;5015127;28;20365;-59
2022/06/06 05:06:20;;;;;;;13.82;5.32;;;;;;;;;;5015429;28;20050;-59
2022/06/06 05:08:59;;;;;;;11.90;4.97;;;;;;;;;;5015085;28;20129;-59
2022/06/06 05:11:44;;;;;;;12.82;5.18;;;;;;;;;;5015280;28;20057;-59
2022/06/06 05:14:29;;;;;;;12.02;5.18;;;;;;;;;;5014925;28;20065;-59
2022/06/06 05:17:08;;;;;;;12.60;5.13;;;;;;;;;;5015198;28;20034;-60
2022/06/06 05:19:44;;;;;;;10.27;4.65;;;;;;;;;;5015295;28;20105;-59
2022/06/06 05:22:11;;;;;;;11.35;4.63;;;;;;;;;;5014773;28;20026;-59
2022/06/06 05:24:47;;;;;;;12.90;5.03;;;;;;;;;;5013996;28;20442;-60
2022/06/06 05:27:27;;;;;;;14.20;5.22;;;;;;;;;;5015369;28;20022;-57
2022/06/06 05:29:57;;;;;;;11.55;4.82;;;;;;;;;;5014786;28;20462;-59
2022/06/06 05:32:45;;;;;;;11.63;4.75;;;;;;;;;;5014051;28;20052;-61
2022/06/06 05:35:12;;;;;;;12.07;4.93;;;;;;;;;;5014993;28;20029;-60
2022/06/06 05:37:39;;;;;;;10.07;4.30;;;;;;;;;;5014162;28;20037;-59
2022/06/06 05:40:06;;;;;;;10.50;4.07;;;;;;;;;;5015031;28;20384;-59
2022/06/06 05:42:36;;;;;;;12.68;4.30;;;;;;;;;;5014470;28;20042;-58
2022/06/06 05:45:29;;;;;;;11.40;4.40;;;;;;;;;;5014790;28;20491;-57
2022/06/06 05:47:56;;;;;;;9.18;3.60;;;;;;;;;;5011504;28;20053;-59
2022/06/06 05:50:35;;;;;;;11.77;4.85;;;;;;;;;;5014809;28;20053;-60
2022/06/06 05:53:20;;;;;;;11.10;4.30;;;;;;;;;;5013322;28;20096;-59
2022/06/06 05:56:05;;;;;;;8.50;4.25;;;;;;;;;;5014288;28;20125;-60
2022/06/06 05:58:32;;;;;;;9.85;4.38;;;;;;;;;;5013822;28;20026;-60
2022/06/06 06:01:08;;;;;;;7.85;3.90;;;;;;;;;;5014551;28;20100;-60
2022/06/06 06:03:38;;;;;;;7.43;3.42;;;;;;;;;;5013455;28;20030;-60
2022/06/06 06:06:13;;;;;;;8.40;3.78;;;;;;;;;;5014039;28;20566;-60
2022/06/06 06:08:47;;;;;;;7.45;3.85;;;;;;;;;;5012858;28;20041;-60
2022/06/06 06:11:32;;;;;;;7.45;3.25;;;;;;;;;;5013615;28;20121;-60
2022/06/06 06:13:59;;;;;;;10.40;3.75;;;;;;;;;;5013882;28;20042;-60
2022/06/06 06:16:29;;;;;;;11.75;4.07;;;;;;;;;;5013648;28;20026;-60
2022/06/06 06:19:05;;;;;;;8.55;3.83;;;;;;;;;;5013678;28;20034;-61
2022/06/06 06:21:35;;;;;;;8.60;3.58;;;;;;;;;;5013605;28;20030;-60
2022/06/06 06:24:08;;;;;;;10.00;3.25;;;;;;;;;;5013696;28;20046;-60
2022/06/06 06:26:36;;;;;;;8.45;3.67;;;;;;;;;;5013334;28;20464;-59
2022/06/06 06:29:04;;;;;;;10.00;3.67;;;;;;;;;;5014184;28;20029;-59
2022/06/06 06:31:37;;;;;;;6.93;3.45;;;;;;;;;;5013200;28;20050;-57
2022/06/06 06:34:04;;;;;;;9.82;3.70;;;;;;;;;;5015251;28;20084;-59
2022/06/06 06:36:41;;;;;;;7.80;3.58;;;;;;;;;;5015262;28;20049;-61
2022/06/06 06:39:23;;;;;;;6.15;3.10;;;;;;;;;;5014358;28;20033;-59
2022/06/06 06:42:00;;;;;;;9.18;4.40;;;;;;;;;;5013336;28;20083;-59
2022/06/06 06:44:33;;;;;;;6.47;3.15;;;;;;;;;;5013390;28;20045;-61
2022/06/06 06:47:08;;;;;;;5.65;3.15;;;;;;;;;;5014051;28;20048;-60
2022/06/06 06:49:40;;;;;;;6.47;3.15;;;;;;;;;;5013856;28;20026;-60
2022/06/06 06:52:12;;;;;;;6.78;3.25;;;;;;;;;;5013473;28;20084;-59
2022/06/06 06:54:48;;;;;;;8.70;3.58;;;;;;;;;;5013540;28;20476;-60
2022/06/06 06:57:35;;;;;;;7.10;3.30;;;;;;;;;;4993561;28;20037;-60
2022/06/06 07:00:08;;;;;;;6.68;2.65;;;;;;;;;;4994330;28;20519;-60
2022/06/06 07:08:34;;;;;;;7.38;3.20;;;;;;;;;;4993703;28;20045;-59
2022/06/06 07:11:19;;;;;;;6.18;2.83;;;;;;;;;;4994000;28;20046;-60
2022/06/06 07:13:51;;;;;;;4.38;2.38;;;;;;;;;;4992986;28;20045;-60
2022/06/06 07:16:23;;;;;;;7.03;3.17;;;;;;;;;;4993466;28;20107;-60
2022/06/06 07:18:53;;;;;;;6.97;2.40;;;;;;;;;;4991289;28;20029;-60
2022/06/06 07:21:21;;;;;;;6.35;2.55;;;;;;;;;;5010542;28;20022;-60
2022/06/06 07:23:48;;;;;;;6.75;2.45;;;;;;;;;;5012732;28;20042;-58
2022/06/06 07:26:17;;;;;;;5.00;2.22;;;;;;;;;;5013060;28;20044;-60
2022/06/06 07:28:44;;;;;;;4.65;2.78;;;;;;;;;;5012153;28;20041;-59
2022/06/06 07:31:14;;;;;;;3.45;1.95;;;;;;;;;;5012816;28;20136;-60
2022/06/06 07:33:47;;;;;;;4.07;2.50;;;;;;;;;;5013157;28;20496;-59
2022/06/06 07:36:32;;;;;;;5.22;2.40;;;;;;;;;;5012659;28;20026;-59
2022/06/06 07:39:17;;;;;;;3.78;1.90;;;;;;;;;;5012476;28;20106;-59
2022/06/06 07:41:49;;;;;;;5.30;2.42;;;;;;;;;;5013046;28;20033;-59
2022/06/06 07:44:28;;;;;;;5.60;2.75;;;;;;;;;;5012387;28;20026;-59
2022/06/06 07:46:56;;;;;;;5.03;2.70;;;;;;;;;;5012314;28;20164;-58
2022/06/06 07:49:26;;;;;;;5.13;2.35;;;;;;;;;;5012753;28;20022;-60
2022/06/06 07:51:59;;;;;;;3.47;2.20;;;;;;;;;;5012107;28;20030;-59
2022/06/06 07:54:36;;;;;;;4.15;2.28;;;;;;;;;;5011196;28;20033;-60
2022/06/06 07:57:15;;;;;;;6.60;2.15;;;;;;;;;;5011879;28;20392;-60
2022/06/06 07:59:53;;;;;;;5.50;2.15;;;;;;;;;;5012512;28;20042;-60
2022/06/06 08:02:55;;;;;;;5.40;2.22;;;;;;;;;;5012767;28;20077;-60
2022/06/06 08:05:40;;;;;;;4.57;2.25;;;;;;;;;;4951875;29;20090;-60
2022/06/06 08:08:21;;;;;;;6.28;2.65;;;;;;;;;;5008305;28;20084;-59
2022/06/06 08:10:48;;;;;;;5.03;2.08;;;;;;;;;;5012169;28;20132;-60
2022/06/06 08:13:15;;;;;;;5.45;2.70;;;;;;;;;;5012023;28;20073;-60
2022/06/06 08:16:00;;;;;;;6.40;2.67;;;;;;;;;;5010727;28;20117;-60
2022/06/06 08:18:36;;;;;;;3.20;1.90;;;;;;;;;;5011976;28;20025;-60
2022/06/06 08:21:07;;;;;;;3.83;1.85;;;;;;;;;;5011931;28;20121;-59
2022/06/06 08:23:35;;;;;;;3.88;1.90;;;;;;;;;;5012372;28;20137;-60
2022/06/06 08:26:02;;;;;;;5.57;2.33;;;;;;;;;;5011760;28;20068;-59
2022/06/06 08:28:48;;;;;;;3.22;1.90;;;;;;;;;;5011943;28;20512;-58
2022/06/06 08:31:15;;;;;;;4.32;2.40;;;;;;;;;;5029098;28;20053;-53
2022/06/06 08:33:42;;;;;;;3.33;1.92;;;;;;;;;;5032074;28;20399;-55
2022/06/06 08:36:28;;;;;;;3.40;1.95;;;;;;;;;;5031730;28;20018;-51
2022/06/06 08:39:03;;;;;;;3.20;1.70;;;;;;;;;;5031693;28;20028;-52
2022/06/06 08:41:30;;;;;;;4.40;2.08;;;;;;;;;;5031925;28;20068;-50
2022/06/06 08:44:01;;;;;;;3.63;1.80;;;;;;;;;;5031941;28;20039;-55
2022/06/06 08:46:42;;;;;;;3.80;2.00;;;;;;;;;;5031673;28;20085;-51
2022/06/06 08:50:44;;;;;;;3.70;2.05;;;;;;;;;;5030954;28;20025;-52
2022/06/06 08:52:05;;;;;;;5.30;1.98;;;;;;;;;;5031393;28;20037;-50
2022/06/06 08:54:44;;;;;;;3.47;1.88;;;;;;;;;;5031854;28;20021;-52
2022/06/06 08:57:19;;;;;;;3.60;1.67;;;;;;;;;;5012045;28;20096;-55
2022/06/06 09:00:01;;;;;;;2.55;1.60;;;;;;;;;;5011486;28;20499;-54
2022/06/06 09:02:45;;;;;;;2.80;1.63;;;;;;;;;;5012413;28;20549;-54
2022/06/06 09:05:28;;;;;;;3.45;1.75;;;;;;;;;;5011704;28;20050;-50
2022/06/06 09:08:17;;;;;;;7.00;1.90;;;;;;;;;;5012101;28;20032;-52
2022/06/06 09:10:52;;;;;;;5.88;1.80;;;;;;;;;;5011387;28;20022;-51
2022/06/06 09:13:25;;;;;;;4.65;1.60;;;;;;;;;;5011194;28;20034;-52
2022/06/06 09:16:03;;;;;;;3.45;1.70;;;;;;;;;;5012036;28;20018;-54
2022/06/06 09:18:48;;;;;;;2.17;1.35;;;;;;;;;;5011132;28;20045;-51
2022/06/06 09:21:33;;;;;;;3.00;1.40;;;;;;;;;;5011872;28;20045;-54
2022/06/06 09:24:27;;;;;;;3.88;1.38;;;;;;;;;;5010847;28;20034;-56
2022/06/06 09:26:54;;;;;;;3.72;1.20;;;;;;;;;;5010922;28;20034;-54
2022/06/06 09:29:39;;;;;;;5.22;1.42;;;;;;;;;;5015881;28;20050;-51
2022/06/06 09:32:12;;;;;;;5.35;1.92;;;;;;;;;;5030503;28;20044;-54
2022/06/06 09:34:42;;;;;;;2.78;1.33;;;;;;;;;;5031431;28;20115;-55
2022/06/06 09:37:44;;;;;;;3.50;1.70;;;;;;;;;;5031239;28;20033;-56
2022/06/06 09:40:30;;;;;;;3.08;1.65;;;;;;;;;;4970244;28;20582;-53
2022/06/06 09:43:18;;;;;;;3.15;1.45;;;;;;;;;;5028863;28;20496;-52
2022/06/06 09:46:00;;;;;;;3.90;1.75;;;;;;;;;;5034684;28;20100;-53
2022/06/06 09:48:44;;;;;;;2.60;1.23;;;;;;;;;;5033843;28;20057;-54
2022/06/06 09:51:18;;;;;;;5.97;1.55;;;;;;;;;;5034232;28;20091;-53
2022/06/06 09:59:42;;;;;;;5.25;1.75;;;;;;;;;;5033866;28;20391;-52
2022/06/06 10:02:24;;;;;;;4.90;1.70;;;;;;;;;;5034754;28;20386;-55
2022/06/06 10:05:10;;;;;;;3.17;1.40;;;;;;;;;;5033517;28;20061;-56
2022/06/06 10:07:40;;;;;;;3.65;1.45;;;;;;;;;;5000596;28;20029;-55
2022/06/06 10:10:25;;;;;;;3.15;1.50;;;;;;;;;;5033889;28;20486;-54
2022/06/06 10:13:11;;;;;;;4.13;1.80;;;;;;;;;;5036379;28;20132;-51
2022/06/06 10:15:44;;;;;;;4.18;1.48;;;;;;;;;;5069672;28;20094;-55
2022/06/06 10:18:20;;;;;;;7.20;1.83;;;;;;;;;;5060644;28;20107;-49
2022/06/06 10:20:50;;;;;;;4.95;1.90;;;;;;;;;;5057679;28;20029;-50
2022/06/06 10:23:23;;;;;;;3.85;1.48;;;;;;;;;;5050544;28;20049;-52
2022/06/06 10:26:05;;;;;;;4.05;1.20;;;;;;;;;;5053533;28;20065;-46
2022/06/06 10:28:50;;;;;;;4.80;1.40;;;;;;;;;;5052987;28;20033;-50
2022/06/06 10:31:43;;;;;;;4.70;1.40;;;;;;;;;;5052598;28;20147;-53
2022/06/06 10:34:18;;;;;;;5.18;1.38;;;;;;;;;;5023045;28;20056;-49
2022/06/06 10:37:03;;;;;;;6.97;1.63;;;;;;;;;;5053177;28;20721;-49
2022/06/06 10:39:49;;;;;;;3.58;1.20;;;;;;;;;;5052503;28;20041;-47
2022/06/06 10:42:23;;;;;;;3.28;1.23;;;;;;;;;;5051947;28;20065;-47
2022/06/06 10:45:00;;;;;;;3.72;1.40;;;;;;;;;;5064273;28;20431;-44
2022/06/06 10:47:41;;;;;;;4.47;1.40;;;;;;;;;;5071902;28;20040;-52
2022/06/06 10:50:16;;;;;;;6.15;1.50;;;;;;;;;;5072705;28;20033;-51
2022/06/06 10:52:43;;;;;;;2.00;1.10;;;;;;;;;;5072095;28;20150;-50
2022/06/06 10:55:14;;;;;;;5.93;1.48;;;;;;;;;;5043504;28;20123;-55
2022/06/06 10:57:44;;;;;;;4.43;1.10;;;;;;;;;;5053143;28;20490;-50
2022/06/06 11:00:22;;;;;;;5.53;1.35;;;;;;;;;;5032382;28;20029;-51
2022/06/06 11:02:59;;;;;;;7.25;1.10;;;;;;;;;;5032633;28;20044;-52
2022/06/06 11:05:29;;;;;;;6.00;1.52;;;;;;;;;;5032194;28;20041;-55
2022/06/06 11:08:32;;;;;;;4.00;1.35;;;;;;;;;;5032020;28;20034;-55
2022/06/06 11:10:58;;;;;;;;;;;;;;;;;;4952578;29;20066;-54
2022/06/06 11:13:29;;;;;;;3.72;1.50;;;;;;;;;;5019112;28;19935;-55
2022/06/06 11:16:25;;;;;;;9.60;1.35;;;;;;;;;;5054282;28;20056;-54
2022/06/06 11:19:09;;;;;;;4.50;1.00;;;;;;;;;;5066186;28;20044;-50
2022/06/06 11:21:54;;;;;;;6.53;1.63;;;;;;;;;;5072864;28;20032;-53
2022/06/06 11:24:24;;;;;;;4.05;1.30;;;;;;;;;;5071904;28;20103;-48
2022/06/06 11:27:02;;;;;;;4.53;1.27;;;;;;;;;;5072561;28;20028;-51
2022/06/06 11:29:38;;;;;;;5.55;1.15;;;;;;;;;;5072637;28;20045;-52
2022/06/06 11:32:24;;;;;;;4.32;1.15;;;;;;;;;;5071752;28;20065;-53
2022/06/06 11:35:12;;;;;;;6.28;1.20;;;;;;;;;;5068605;28;20047;-53
2022/06/06 11:37:58;;;;;;;5.53;1.40;;;;;;;;;;5057526;28;20032;-54
2022/06/06 11:40:54;;;;;;;5.10;1.38;;;;;;;;;;5045801;28;20029;-55
2022/06/06 11:43:39;;;;;;;2.95;1.15;;;;;;;;;;5019984;28;20033;-55
2022/06/06 11:46:14;;;;;;;4.82;1.38;;;;;;;;;;5030938;28;20029;-53
2022/06/06 11:49:01;;;;;;;5.82;1.25;;;;;;;;;;5030111;28;20449;-54
2022/06/06 11:51:46;;;;;;;5.60;1.13;;;;;;;;;;5031394;28;20041;-52
2022/06/06 11:54:42;;;;;;;4.80;1.27;;;;;;;;;;5032293;28;20037;-49
2022/06/06 11:57:23;;;;;;;7.95;1.40;;;;;;;;;;5030771;28;20045;-58
2022/06/06 12:00:03;;;;;;;3.88;1.35;;;;;;;;;;5049868;28;20029;-54
2022/06/06 12:02:47;;;;;;;45.53;4.70;;;;;;;;;;5051339;28;20067;-45
2022/06/06 12:05:33;;;;;;;15.50;2.33;;;;;;;;;;5033481;28;20482;-54
2022/06/06 12:08:18;;;;;;;17.83;2.38;;;;;;;;;;5050446;28;20035;-51
2022/06/06 12:10:56;;;;;;;12.13;1.60;;;;;;;;;;5051784;28;20020;-54
2022/06/06 12:13:41;;;;;;;11.13;1.60;;;;;;;;;;5051406;28;20037;-47
2022/06/06 12:16:27;;;;;;;6.38;1.92;;;;;;;;;;5051999;28;20398;-49
2022/06/06 12:19:03;;;;;;;5.70;1.65;;;;;;;;;;5050023;28;20106;-47
2022/06/06 12:21:45;;;;;;;13.95;1.90;;;;;;;;;;5051699;28;20040;-54
2022/06/06 12:24:30;;;;;;;12.48;2.00;;;;;;;;;;5051485;28;20024;-49
2022/06/06 12:27:15;;;;;;;8.43;2.00;;;;;;;;;;5033774;28;20036;-50
2022/06/06 12:30:05;;;;;;;8.10;2.10;;;;;;;;;;5050387;28;20048;-53
2022/06/06 12:32:47;;;;;;;12.27;2.33;;;;;;;;;;5044091;28;20136;-54
2022/06/06 12:35:17;;;;;;;10.40;2.28;;;;;;;;;;5051663;28;20024;-51
2022/06/06 12:37:53;;;;;;;5.95;1.80;;;;;;;;;;5051064;28;20386;-52
2022/06/06 12:40:26;;;;;;;8.85;1.85;;;;;;;;;;5050922;28;20036;-52
2022/06/06 12:43:08;;;;;;;6.20;1.75;;;;;;;;;;5051318;28;20120;-51
2022/06/06 12:45:53;;;;;;;7.20;1.67;;;;;;;;;;5051310;28;20041;-56
2022/06/06 12:48:20;;;;;;;6.22;1.95;;;;;;;;;;5050657;28;20445;-52
2022/06/06 12:50:56;;;;;;;5.78;1.70;;;;;;;;;;5050283;28;20036;-47
2022/06/06 12:53:38;;;;;;;8.00;1.77;;;;;;;;;;5051403;28;20041;-54
2022/06/06 12:56:17;;;;;;;7.20;1.65;;;;;;;;;;5050686;28;20029;-55
2022/06/06 12:58:45;;;;;;;4.43;1.65;;;;;;;;;;5051255;28;20033;-53
2022/06/06 13:04:14;;;;;;;4.10;1.45;;;;;;;;;;5051006;28;20124;-53
2022/06/06 13:07:04;;;;;;;6.43;1.50;;;;;;;;;;5051180;28;20033;-49
2022/06/06 13:09:31;;;;;;;8.18;1.77;;;;;;;;;;5023125;28;20505;-55
2022/06/06 13:11:58;;;;;;;5.18;1.73;;;;;;;;;;5051267;28;20032;-52
2022/06/06 13:14:33;;;;;;;6.28;2.28;;;;;;;;;;5051424;28;20482;-50
2022/06/06 13:17:07;;;;;;;6.40;1.58;;;;;;;;;;5051825;28;20024;-54
2022/06/06 13:19:45;;;;;;;6.13;1.70;;;;;;;;;;5055580;28;20021;-52
2022/06/06 13:22:19;;;;;;;8.43;2.05;;;;;;;;;;5057138;28;20029;-51
2022/06/06 13:24:58;;;;;;;6.38;2.63;;;;;;;;;;5075039;28;20521;-55
2022/06/06 13:27:34;;;;;;;10.52;5.40;;;;;;;;;;5056961;28;20025;-50
2022/06/06 13:30:20;;;;;;;15.25;5.50;;;;;;;;;;5062448;28;20052;-54
2022/06/06 13:33:05;;;;;;;20.30;9.05;;;;;;;;;;5050875;28;20056;-47
2022/06/06 13:35:53;;;;;;;35.28;21.10;;;;;;;;;;5054143;28;20060;-54
2022/06/06 13:38:20;;;;;;;25.10;14.95;;;;;;;;;;5053027;28;20047;-47
2022/06/06 13:40:55;;;;;;;24.30;13.30;;;;;;;;;;5053712;28;20450;-49
2022/06/06 13:43:40;;;;;;;20.73;11.65;;;;;;;;;;5053377;28;20394;-47
2022/06/06 13:46:11;;;;;;;23.30;10.43;;;;;;;;;;5053887;28;20017;-53
2022/06/06 13:48:41;;;;;;;18.17;9.85;;;;;;;;;;5056370;28;20036;-52
2022/06/06 13:51:21;;;;;;;16.60;8.57;;;;;;;;;;5052448;28;20036;-50
2022/06/06 13:53:53;;;;;;;17.63;8.68;;;;;;;;;;5053162;28;20044;-52
2022/06/06 13:56:31;;;;;;;15.48;8.13;;;;;;;;;;5053727;28;20032;-52
2022/06/06 13:58:58;;;;;;;17.13;8.27;;;;;;;;;;5052911;28;20086;-50
2022/06/06 14:01:25;;;;;;;15.85;7.45;;;;;;;;;;5052039;28;20041;-50
2022/06/06 14:04:04;;;;;;;22.08;6.95;;;;;;;;;;5053141;28;20094;-44
2022/06/06 14:06:53;;;;;;;15.38;7.47;;;;;;;;;;5053620;28;20078;-48
2022/06/06 14:09:35;;;;;;;15.40;7.00;;;;;;;;;;5052844;28;20035;-49
2022/06/06 14:12:06;;;;;;;15.87;6.73;;;;;;;;;;5052469;28;20025;-49
2022/06/06 14:14:35;;;;;;;15.68;6.85;;;;;;;;;;5052784;28;20072;-49
2022/06/06 14:17:04;;;;;;;11.35;6.30;;;;;;;;;;5052697;28;20603;-49
2022/06/06 14:19:31;;;;;;;11.20;6.18;;;;;;;;;;5052543;28;20045;-50
2022/06/06 14:22:01;;;;;;;18.20;6.07;;;;;;;;;;5053511;28;20032;-55
2022/06/06 14:24:29;;;;;;;12.50;5.97;;;;;;;;;;5072799;28;20112;-49
2022/06/06 14:27:02;;;;;;;13.10;6.10;;;;;;;;;;5056898;28;20086;-51
2022/06/06 14:29:29;;;;;;;10.88;5.75;;;;;;;;;;5052155;28;20118;-46
2022/06/06 14:31:59;;;;;;;11.35;6.18;;;;;;;;;;5052823;28;20032;-52
2022/06/06 14:34:46;;;;;;;10.63;5.65;;;;;;;;;;5052385;28;20033;-53
2022/06/06 14:37:15;;;;;;;9.50;5.28;;;;;;;;;;5053496;28;20517;-48
2022/06/06 14:39:49;;;;;;;8.88;4.75;;;;;;;;;;5052082;28;20098;-47
2022/06/06 14:42:34;;;;;;;10.20;5.40;;;;;;;;;;5052789;28;20028;-50
2022/06/06 14:45:06;;;;;;;11.10;5.25;;;;;;;;;;5052865;28;20494;-51
2022/06/06 14:47:36;;;;;;;11.60;4.72;;;;;;;;;;5051581;28;20025;-50
2022/06/06 14:52:59;;;;;;;8.63;4.85;;;;;;;;;;5052063;28;20048;-55
2022/06/06 14:55:26;;;;;;;7.60;4.57;;;;;;;;;;5052809;28;20104;-49
2022/06/06 14:57:54;;;;;;;7.70;4.53;;;;;;;;;;5052575;28;20022;-54
2022/06/06 15:00:32;;;;;;;11.55;4.75;;;;;;;;;;5052324;28;20036;-48
2022/06/06 15:03:04;;;;;;;14.02;4.38;;;;;;;;;;5051650;28;20029;-53
2022/06/06 15:05:31;;;;;;;13.25;4.32;;;;;;;;;;5052231;28;20580;-49
2022/06/06 15:08:01;;;;;;;8.45;4.10;;;;;;;;;;5052383;28;20032;-48
2022/06/06 15:10:35;;;;;;;12.88;4.60;;;;;;;;;;5052382;28;20033;-47
2022/06/06 15:13:03;;;;;;;13.65;4.30;;;;;;;;;;5051829;28;20033;-48
2022/06/06 15:15:33;;;;;;;12.45;4.50;;;;;;;;;;5051058;28;20045;-52
2022/06/06 15:18:00;;;;;;;11.57;3.97;;;;;;;;;;5052068;28;20033;-48
2022/06/06 15:20:30;;;;;;;9.43;4.05;;;;;;;;;;5052327;28;20025;-54
2022/06/06 15:23:23;;;;;;;18.02;4.43;;;;;;;;;;5049541;28;20040;-55
2022/06/06 15:25:59;;;;;;;15.05;4.30;;;;;;;;;;5047014;28;20044;-50
2022/06/06 15:35:12;;;;;;;124.55;19.45;;;;;;;;;;5050075;28;20059;-48
2022/06/06 15:37:51;;;;;;;95.95;18.98;;;;;;;;;;5051584;28;20548;-53
2022/06/06 15:40:47;;;;;;;104.35;19.38;;;;;;;;;;5050468;28;20036;-54
2022/06/06 15:43:32;;;;;;;99.95;21.40;;;;;;;;;;5030904;28;20148;-47
2022/06/06 15:46:17;;;;;;;87.38;21.73;;;;;;;;;;5050182;28;20029;-50
2022/06/06 15:48:46;;;;;;;92.60;23.60;;;;;;;;;;5050915;28;20033;-47